Latest Weather Observations for Lameroo AWS

IDS60801

Issued at 7:01 pm CST Tuesday 28 June 2016 (issued every 30 minutes, with the page automatically refreshed every 10 minutes)

About weather observations | Map of weather stations | Latest weather observations for SA | Other Formats
Station Details ID: 025562 Name: AUSTIN PLAINS Lat: -35.38 Lon: 140.54 Height: 110.08 m
Data from the previous 72 hours. | See also: Recent months at Lameroo AWS
Date/Time
CST
Temp
°C
App
Temp
°C
Dew
Point
°C
Rel
Hum
%
Delta-T
°C
Wind Press
QNH
hPa
Press
MSL
hPa
Rain since
9am
mm
Dir  Spd
km/h
Gust
km/h
Spd
kts
Gust
kts
28/07:00pm 9.5 6.6 6.6 82 1.3 N 11 13 6 7 1026.6 1026.7 0.0
28/06:30pm 9.9 7.1 6.8 81 1.5 N 11 13 6 7 1026.4 1026.5 0.0
28/06:00pm 11.3 9.0 7.4 77 1.9 NNW 9 9 5 5 1026.2 1026.3 0.0
28/05:30pm 12.0 10.1 7.7 75 2.1 NW 7 7 4 4 1026.0 1026.1 0.0
28/05:00pm 13.5 12.1 9.0 74 2.3 NW 6 7 3 4 1025.9 1026.0 0.0
28/04:30pm 14.3 12.7 8.7 69 2.8 WNW 7 9 4 5 1025.8 1025.9 0.0
28/04:00pm 15.1 12.7 8.6 65 3.3 WNW 11 15 6 8 1025.8 1025.9 0.0
28/03:30pm 15.6 12.6 7.6 59 4.0 NW 13 19 7 10 1025.7 1025.8 0.0
28/03:00pm 15.8 12.6 8.5 62 3.7 NW 15 19 8 10 1025.6 1025.7 0.0
28/02:30pm 15.7 12.1 8.4 62 3.7 WNW 17 24 9 13 1025.7 1025.8 0.0
28/02:00pm 15.4 11.4 8.2 62 3.6 WNW 19 24 10 13 1025.8 1025.9 0.0
28/01:30pm 15.6 11.7 8.8 64 3.5 WNW 19 24 10 13 1025.9 1026.0 0.0
28/01:00pm 15.1 11.2 8.8 66 3.2 W 19 28 10 15 1026.0 1026.1 0.0
28/12:30pm 14.8 10.3 8.7 67 3.1 WNW 22 26 12 14 1026.2 1026.3 0.0
28/12:00pm 14.2 10.3 8.6 69 2.8 WNW 19 26 10 14 1026.3 1026.4 0.0
28/11:30am 13.6 9.1 8.7 72 2.5 WNW 22 32 12 17 1026.6 1026.7 0.0
28/11:00am 13.1 9.1 9.2 77 2.0 WNW 20 28 11 15 1026.8 1026.9 0.0
28/10:30am 11.6 7.7 8.5 81 1.5 NW 19 24 10 13 1026.9 1027.1 0.0
28/10:00am 10.3 6.5 7.5 83 1.3 NW 17 22 9 12 1026.7 1026.8 0.0
28/09:30am 9.0 5.5 7.0 87 0.9 NW 15 19 8 10 1026.6 1026.7 0.0
28/09:00am 7.7 4.4 6.2 90 0.7 NW 13 17 7 9 1026.4 1026.5 0.2
28/08:30am 6.3 2.7 5.1 92 0.5 NW 13 17 7 9 1026.2 1026.3 0.2
28/08:00am 5.0 1.4 5.0 100 0.0 NNW 13 15 7 8 1025.7 1025.8 0.2
28/07:30am 4.1 0.3 4.1 100 0.0 NW 13 15 7 8 1025.4 1025.5 0.2
28/07:00am 4.0 0.2 4.0 100 0.0 NW 13 15 7 8 1025.1 1025.2 0.2
28/06:30am 4.3 0.2 4.3 100 0.0 NW 15 17 8 9 1024.8 1024.9 0.2
28/06:00am 4.4 0.7 4.4 100 0.0 NW 13 15 7 8 1024.4 1024.5 0.2
28/05:30am 4.1 - - - - NW 11 13 6 7 1024.3 1024.4 0.2
28/05:00am 4.1 0.7 4.1 100 0.0 NW 11 13 6 7 1024.0 1024.1 0.2
28/04:30am 4.1 0.3 4.1 100 0.0 NW 13 15 7 8 1023.8 1023.9 0.2
28/04:00am 3.9 0.1 3.9 100 0.0 NW 13 15 7 8 1023.8 1023.9 0.2
28/03:30am 3.9 -0.1 3.0 94 0.4 NW 13 15 7 8 1023.9 1024.0 0.2
28/03:00am 4.0 0.0 2.8 92 0.5 NW 13 15 7 8 1024.0 1024.1 0.2
28/02:30am 4.3 0.3 3.1 92 0.5 NW 13 15 7 8 1024.0 1024.1 0.2
28/02:00am 4.2 -0.1 3.0 92 0.5 NW 15 15 8 8 1024.0 1024.1 0.2
28/01:30am 4.2 0.2 3.0 92 0.5 NW 13 15 7 8 1023.8 1023.9 0.2
28/01:00am 4.0 0.0 2.8 92 0.5 NW 13 13 7 7 1023.7 1023.8 0.2
28/12:30am 4.3 0.3 2.8 90 0.6 NW 13 13 7 7 1023.7 1023.8 0.0
28/12:00am 4.6 0.6 3.1 90 0.6 NW 13 13 7 7 1023.7 1023.8 0.0
 
Date/Time
CST
Temp
°C
App
Temp
°C
Dew
Point
°C
Rel
Hum
%
Delta-T
°C
Wind Press
QNH
hPa
Press
MSL
hPa
Rain since
9am
mm
Dir  Spd
km/h
Gust
km/h
Spd
kts
Gust
kts
27/11:30pm 4.8 0.9 3.3 90 0.6 NW 13 13 7 7 1023.9 1024.0 0.0
27/11:00pm 5.3 1.8 3.6 89 0.7 NW 11 13 6 7 1023.7 1023.8 0.0
27/10:30pm 5.4 2.0 3.9 90 0.6 NW 11 13 6 7 1023.7 1023.8 0.0
27/10:00pm 5.7 2.3 4.0 89 0.7 NW 11 13 6 7 1023.6 1023.7 0.0
27/09:30pm 5.8 2.4 4.1 89 0.7 NW 11 11 6 6 1023.4 1023.5 0.0
27/09:00pm 6.1 3.2 4.4 89 0.7 NW 9 11 5 6 1023.4 1023.5 0.0
27/08:30pm 6.7 3.8 4.9 88 0.8 W 9 9 5 5 1023.0 1023.2 0.0
27/08:00pm 6.8 4.3 4.6 86 1.0 WNW 7 7 4 4 1022.7 1022.9 0.0
27/07:30pm 7.8 5.4 5.3 84 1.1 WNW 7 7 4 4 1022.6 1022.8 0.0
27/07:00pm 8.1 5.8 5.7 85 1.1 WNW 7 9 4 5 1022.3 1022.5 0.0
27/06:30pm 7.8 5.1 5.8 87 0.9 WNW 9 11 5 6 1022.1 1022.3 0.0
27/06:00pm 9.4 7.2 6.3 81 1.4 W 7 7 4 4 1021.8 1022.0 0.0
27/05:30pm 10.0 7.8 6.3 78 1.7 W 7 7 4 4 1021.5 1021.7 0.0
27/05:00pm 10.9 8.8 6.6 75 2.0 W 7 7 4 4 1021.0 1021.2 0.0
27/04:30pm 12.1 10.2 7.4 73 2.3 WSW 7 9 4 5 1020.9 1021.1 0.0
27/04:00pm 13.0 10.5 6.6 65 3.1 SW 9 17 5 9 1020.6 1020.8 0.0
27/03:30pm 12.5 9.7 7.0 69 2.7 SSW 11 17 6 9 1020.3 1020.5 0.0
27/03:00pm 12.9 8.6 6.9 67 2.9 SSW 19 24 10 13 1020.1 1020.3 0.0
27/02:30pm 12.8 8.1 7.9 72 2.4 SSW 22 28 12 15 1020.0 1020.2 0.0
27/02:00pm 11.9 5.4 8.2 78 1.8 SW 32 37 17 20 1019.9 1020.1 0.0
27/01:30pm 14.1 9.5 6.5 60 3.7 SW 20 32 11 17 1019.7 1019.9 0.0
27/01:00pm 13.5 9.2 6.8 64 3.3 SW 19 26 10 14 1019.7 1019.9 0.0
27/12:30pm 13.8 10.1 7.8 67 3.0 SW 17 24 9 13 1019.8 1020.0 0.0
27/12:00pm 13.4 10.2 8.5 72 2.5 SSW 15 28 8 15 1020.0 1020.2 0.0
27/11:30am 12.3 8.7 8.2 76 2.0 SSW 17 24 9 13 1020.1 1020.3 0.0
27/11:00am 11.4 8.6 8.6 83 1.4 SSW 13 19 7 10 1020.1 1020.3 0.0
27/10:30am 10.3 7.8 8.1 86 1.1 SW 11 19 6 10 1020.1 1020.3 0.0
27/10:00am 9.1 6.5 7.9 92 0.6 WSW 11 15 6 8 1020.0 1020.2 0.0
27/09:30am 8.0 5.6 6.9 93 0.5 WSW 9 11 5 6 1019.6 1019.8 0.0
27/09:00am 7.1 4.7 7.1 100 0.0 WNW 9 13 5 7 1019.3 1019.5 0.0
27/08:30am 6.2 3.1 5.6 96 0.3 NW 11 15 6 8 1019.0 1019.1 0.0
27/08:00am 5.9 2.9 5.8 99 0.0 NW 11 13 6 7 1018.6 1018.7 0.0
27/07:30am 5.3 2.5 5.3 100 0.0 NW 9 11 5 6 1018.4 1018.5 0.0
27/07:00am 4.8 1.5 4.8 100 0.0 NW 11 13 6 7 1018.0 1018.1 0.0
27/06:30am 3.9 - - - - NW 13 15 7 8 1017.8 1017.9 0.0
27/06:00am 3.3 - - - - NNW 11 13 6 7 1017.4 1017.5 0.0
27/05:30am 2.6 - - - - NNW 11 13 6 7 1017.3 1017.4 0.0
27/05:00am 3.3 -0.2 3.3 100 0.0 NNW 11 11 6 6 1017.0 1017.1 0.0
27/04:30am 3.8 0.0 3.7 99 0.0 NNW 13 15 7 8 1016.8 1016.9 0.0
27/04:00am 4.1 - - - - NNW 13 17 7 9 1016.6 1016.7 0.0
27/03:30am 3.1 -0.5 3.1 100 0.0 NNW 11 13 6 7 1016.7 1016.8 0.0
27/03:00am 3.0 -0.7 2.3 95 0.3 N 11 11 6 6 1016.7 1016.8 0.0
27/02:30am 3.3 0.0 2.4 94 0.4 N 9 11 5 6 1016.9 1017.0 0.0
27/02:00am 3.4 -0.3 2.5 94 0.4 N 11 13 6 7 1016.9 1017.0 0.0
27/01:30am 3.2 -0.5 2.2 93 0.4 N 11 11 6 6 1017.1 1017.2 0.0
27/01:00am 3.6 0.3 2.6 93 0.4 N 9 11 5 6 1017.1 1017.2 0.0
27/12:30am 3.3 -0.4 2.1 92 0.5 N 11 13 6 7 1017.2 1017.3 0.0
27/12:00am 3.8 0.1 2.5 91 0.5 N 11 13 6 7 1017.0 1017.1 0.0
 
Date/Time
CST
Temp
°C
App
Temp
°C
Dew
Point
°C
Rel
Hum
%
Delta-T
°C
Wind Press
QNH
hPa
Press
MSL
hPa
Rain since
9am
mm
Dir  Spd
km/h
Gust
km/h
Spd
kts
Gust
kts
26/11:30pm 3.9 0.2 2.4 90 0.6 N 11 13 6 7 1017.2 1017.3 0.0
26/11:00pm 4.8 0.8 3.0 88 0.7 N 13 17 7 9 1017.1 1017.2 0.0
26/10:30pm 5.1 0.8 3.0 86 0.9 N 15 19 8 10 1017.1 1017.2 0.0
26/10:00pm 5.5 1.2 3.2 85 1.0 N 15 19 8 10 1017.1 1017.2 0.0
26/09:30pm 5.4 1.1 3.1 85 1.0 N 15 19 8 10 1017.0 1017.1 0.0
26/09:00pm 5.7 2.1 3.2 84 1.0 N 11 15 6 8 1017.1 1017.2 0.0
26/08:30pm 6.4 2.5 3.6 82 1.2 N 13 19 7 10 1017.2 1017.3 0.0
26/08:00pm 6.4 2.5 3.6 82 1.2 N 13 17 7 9 1017.1 1017.2 0.0
26/07:30pm 6.2 1.9 3.4 82 1.2 NNE 15 17 8 9 1016.9 1017.0 0.0
26/07:00pm 6.5 2.3 4.0 84 1.1 NNE 15 17 8 9 1016.6 1016.7 0.0
26/06:30pm 6.8 3.0 4.1 83 1.2 NNE 13 15 7 8 1016.7 1016.8 0.0
26/06:00pm 7.8 4.2 4.9 82 1.3 NNE 13 15 7 8 1016.5 1016.6 0.0
26/05:30pm 7.4 3.7 4.4 81 1.3 NE 13 13 7 7 1016.3 1016.4 0.0
26/05:00pm 8.7 5.4 4.5 75 1.9 NE 11 13 6 7 1016.2 1016.3 0.0
26/04:30pm 10.0 6.7 4.8 70 2.3 N 11 13 6 7 1016.1 1016.2 0.0
26/04:00pm 10.9 7.2 4.4 64 2.9 N 13 19 7 10 1016.0 1016.1 0.0
26/03:30pm 11.3 6.9 4.5 63 3.1 N 17 20 9 11 1015.9 1016.0 0.0
26/03:00pm 11.5 7.1 4.5 62 3.2 N 17 22 9 12 1016.0 1016.1 0.0
26/02:30pm 11.0 5.9 4.0 62 3.1 N 20 26 11 14 1016.1 1016.2 0.0
26/02:00pm 11.4 6.4 4.6 63 3.1 N 20 28 11 15 1016.3 1016.4 0.0
26/01:30pm 10.6 5.5 4.3 65 2.8 N 20 24 11 13 1016.5 1016.6 0.0
26/01:00pm 10.3 5.3 4.5 67 2.6 N 20 28 11 15 1016.9 1017.0 0.0
26/12:30pm 10.2 4.7 4.1 66 2.7 N 22 28 12 15 1017.3 1017.4 0.0
26/12:00pm 9.1 3.9 3.7 69 2.4 N 20 30 11 16 1017.9 1018.0 0.0
26/11:30am 8.7 3.5 3.7 71 2.2 N 20 26 11 14 1018.7 1018.8 0.0
26/11:00am 8.3 3.7 3.9 74 1.9 N 17 22 9 12 1019.2 1019.3 0.0
26/10:30am 8.4 3.9 4.2 75 1.8 N 17 20 9 11 1019.6 1019.8 0.0
26/10:00am 8.0 3.5 4.2 77 1.7 N 17 20 9 11 1019.8 1020.0 0.0
26/09:30am 7.6 3.1 4.2 79 1.5 N 17 22 9 12 1019.8 1020.0 0.0
26/09:00am 7.3 2.7 3.9 79 1.5 N 17 24 9 13 1019.8 1020.0 0.0
26/08:30am 7.0 2.9 4.1 82 1.3 N 15 19 8 10 1019.6 1019.8 0.0
26/08:00am 6.7 3.0 4.2 84 1.1 NNE 13 17 7 9 1019.3 1019.5 0.0
26/07:30am 6.6 3.6 3.9 83 1.2 NNE 9 13 5 7 1018.8 1018.9 0.0
26/07:00am 6.4 3.4 3.9 84 1.1 NNE 9 11 5 6 1019.2 1019.3 0.0
26/06:30am 6.5 3.4 3.8 83 1.2 NNE 9 11 5 6 1019.5 1019.7 0.0
26/06:00am 6.6 3.1 3.6 81 1.3 N 11 15 6 8 1019.7 1019.9 0.0
26/05:30am 6.7 3.2 3.5 80 1.4 N 11 15 6 8 1020.0 1020.2 0.0
26/05:00am 6.7 3.2 3.5 80 1.4 N 11 15 6 8 1020.0 1020.2 0.0
26/04:30am 6.5 3.0 3.5 81 1.3 NNE 11 13 6 7 1019.9 1020.1 0.0
26/04:00am 6.2 3.1 3.5 83 1.1 NNE 9 13 5 7 1019.7 1019.9 0.0
26/03:30am 5.4 2.7 3.6 88 0.8 NE 7 9 4 5 1019.8 1020.0 0.0
26/03:00am 5.3 1.8 3.3 87 0.8 NE 11 11 6 6 1019.9 1020.1 0.0
26/02:30am 4.7 1.4 2.7 87 0.8 NE 9 9 5 5 1020.3 1020.5 0.0
26/02:00am 4.5 0.8 2.4 86 0.8 NE 11 11 6 6 1020.4 1020.6 0.0
26/01:30am 4.9 1.6 2.6 85 0.9 NE 9 9 5 5 1020.5 1020.7 0.0
26/01:00am 5.0 1.4 2.7 85 0.9 NE 11 13 6 7 1020.3 1020.5 0.0
26/12:30am 5.8 2.2 2.8 81 1.2 NNE 11 11 6 6 1020.8 1021.0 0.0
26/12:00am 6.3 3.1 3.1 80 1.3 NNE 9 11 5 6 1020.8 1021.0 0.0
 
Date/Time
CST
Temp
°C
App
Temp
°C
Dew
Point
°C
Rel
Hum
%
Delta-T
°C
Wind Press
QNH
hPa
Press
MSL
hPa
Rain since
9am
mm
Dir  Spd
km/h
Gust
km/h
Spd
kts
Gust
kts
25/11:30pm 7.3 3.8 3.4 76 1.7 NNE 11 13 6 7 1021.0 1021.2 0.0
25/11:00pm 7.9 4.4 3.4 73 1.9 NNE 11 13 6 7 1021.3 1021.5 0.0
25/10:30pm 8.1 5.1 4.1 76 1.7 N 9 11 5 6 1021.7 1021.9 0.0
25/10:00pm 8.6 5.6 4.2 74 1.9 NNE 9 13 5 7 1021.6 1021.8 0.0
25/09:30pm 8.5 5.9 4.3 75 1.8 N 7 7 4 4 1022.1 1022.3 0.0
25/09:00pm 8.5 6.0 4.7 77 1.7 N 7 7 4 4 1022.2 1022.4 0.0
25/08:30pm 8.7 5.8 4.7 76 1.8 N 9 11 5 6 1022.9 1023.1 0.0
25/08:00pm 9.1 5.0 4.1 71 2.2 N 15 19 8 10 1023.3 1023.4 0.0
25/07:30pm 9.4 5.9 3.6 67 2.5 N 11 15 6 8 1023.0 1023.2 0.0

Other Formats:

Comma delimited format used in spreadsheet applications
http://www.bom.gov.au/fwo/IDS60801/IDS60801.94690.axf

JavaScript Object Notation format (JSON) in row-major order
http://www.bom.gov.au/fwo/IDS60801/IDS60801.94690.json